Time;durP1;ratioP1;P1;durP2;ratioP2;P2;SDS_P1;SDS_P2;PMS_P1;PMS_P2;Temp;Humidity;BMP_temperature;BMP_pressure;BME280_temperature;BME280_humidity;BME280_pressure;Samples;Min_cycle;Max_cycle;Signal;HPM_P1;HPM_P2
2024/01/19 00:01:13;;;;;;;9.48;1.75;;;1.70;99.90;;;;;;5082666;28;20213;-47
2024/01/19 00:03:39;;;;;;;6.82;1.80;;;1.70;99.90;;;;;;5082614;28;20437;-45
2024/01/19 00:06:05;;;;;;;8.40;2.67;;;1.70;99.90;;;;;;5082559;28;20264;-46
2024/01/19 00:08:31;;;;;;;5.75;2.08;;;1.70;99.90;;;;;;5082906;28;20217;-52
2024/01/19 00:10:57;;;;;;;10.15;2.17;;;1.70;99.90;;;;;;5082432;28;20184;-44
2024/01/19 00:13:23;;;;;;;8.73;2.10;;;1.70;99.90;;;;;;5081460;28;20253;-46
2024/01/19 00:15:49;;;;;;;8.98;2.20;;;1.60;99.90;;;;;;5082641;28;20193;-46
2024/01/19 00:18:14;;;;;;;6.28;1.50;;;1.60;99.90;;;;;;5082517;28;20186;-44
2024/01/19 00:20:40;;;;;;;4.10;1.67;;;1.60;99.90;;;;;;5082343;28;20281;-47
2024/01/19 00:23:06;;;;;;;1.88;1.40;;;1.70;99.90;;;;;;5082074;28;20228;-44
2024/01/19 00:25:32;;;;;;;3.65;1.30;;;1.70;99.90;;;;;;5082468;28;20188;-48
2024/01/19 00:27:58;;;;;;;6.72;1.52;;;1.80;99.90;;;;;;5082464;28;20195;-49
2024/01/19 00:30:24;;;;;;;3.60;1.08;;;1.80;99.90;;;;;;5082192;28;20178;-50
2024/01/19 00:32:50;;;;;;;3.85;1.30;;;1.90;99.90;;;;;;5081692;28;20284;-47
2024/01/19 00:35:15;;;;;;;3.00;1.40;;;1.90;99.90;;;;;;5082308;28;20244;-53
2024/01/19 00:37:41;;;;;;;1.15;1.00;;;1.90;99.90;;;;;;5082418;28;20185;-50
2024/01/19 00:40:11;;;;;;;4.63;1.17;;;2.10;99.90;;;;;;5078816;28;20196;-44
2024/01/19 00:42:42;;;;;;;3.55;1.00;;;2.00;99.90;;;;;;5080608;28;20213;-52
2024/01/19 00:45:11;;;;;;;1.95;1.05;;;2.00;99.90;;;;;;5080881;28;20618;-50
2024/01/19 00:47:38;;;;;;;4.82;1.33;;;2.00;99.90;;;;;;5081969;28;20186;-48
2024/01/19 00:50:06;;;;;;;3.03;1.15;;;2.00;99.90;;;;;;5081678;28;20246;-46
2024/01/19 00:52:32;;;;;;;6.03;1.27;;;2.00;99.90;;;;;;5081805;28;20196;-49
2024/01/19 00:54:57;;;;;;;5.07;1.40;;;2.00;99.90;;;;;;5082133;28;20185;-53
2024/01/19 00:57:23;;;;;;;6.43;1.10;;;2.00;99.90;;;;;;5082087;28;20728;-52
2024/01/19 00:59:49;;;;;;;3.63;1.20;;;2.00;99.90;;;;;;5081547;28;20185;-51
2024/01/19 01:02:15;;;;;;;5.13;1.23;;;2.00;99.90;;;;;;5081375;28;20320;-51
2024/01/19 01:04:41;;;;;;;2.05;0.90;;;2.00;99.90;;;;;;5081688;28;20205;-50
2024/01/19 01:07:08;;;;;;;4.28;1.45;;;1.90;99.90;;;;;;5081709;28;20247;-47
2024/01/19 01:09:35;;;;;;;3.58;0.98;;;2.00;99.90;;;;;;5081393;28;20186;-47
2024/01/19 01:12:02;;;;;;;1.48;0.80;;;1.90;99.90;;;;;;5081834;28;20189;-52
2024/01/19 01:14:28;;;;;;;1.25;1.13;;;1.90;99.90;;;;;;5081196;28;20190;-50
2024/01/19 01:16:54;;;;;;;1.88;1.33;;;1.90;99.90;;;;;;5081463;28;20265;-48
2024/01/19 01:19:20;;;;;;;3.85;1.40;;;1.90;99.90;;;;;;5080112;28;20262;-50
2024/01/19 01:21:45;;;;;;;5.40;1.83;;;1.90;99.90;;;;;;5081307;28;20217;-50
2024/01/19 01:24:11;;;;;;;6.13;1.58;;;1.80;99.90;;;;;;5061733;28;20225;-50
2024/01/19 01:26:37;;;;;;;4.57;1.40;;;1.80;99.90;;;;;;5081348;28;20226;-47
2024/01/19 01:29:03;;;;;;;7.95;1.40;;;1.80;99.90;;;;;;5081927;28;20181;-47
2024/01/19 01:31:29;;;;;;;4.85;1.60;;;1.70;99.90;;;;;;5081110;28;20637;-47
2024/01/19 01:33:55;;;;;;;6.38;2.10;;;1.70;99.90;;;;;;5080982;28;20215;-50
2024/01/19 01:36:21;;;;;;;9.35;2.40;;;1.60;99.90;;;;;;5079394;28;20264;-53
2024/01/19 01:38:47;;;;;;;7.18;1.85;;;1.50;99.90;;;;;;5081125;28;20669;-52
2024/01/19 01:41:13;;;;;;;5.28;1.88;;;1.50;99.90;;;;;;5081402;28;20214;-52
2024/01/19 01:43:38;;;;;;;2.35;1.40;;;1.50;99.90;;;;;;5080863;28;20654;-47
2024/01/19 01:46:04;;;;;;;5.53;2.20;;;1.40;99.90;;;;;;5080676;28;20552;-49
2024/01/19 01:48:30;;;;;;;8.85;2.33;;;1.40;99.90;;;;;;5081623;28;20500;-50
2024/01/19 01:50:57;;;;;;;6.95;2.20;;;1.40;99.90;;;;;;5080694;28;20185;-50
2024/01/19 01:53:24;;;;;;;4.03;1.88;;;1.40;99.90;;;;;;5081112;28;20178;-49
2024/01/19 01:55:50;;;;;;;9.43;2.30;;;1.30;99.90;;;;;;5080046;28;20560;-49
2024/01/19 01:58:17;;;;;;;7.57;2.53;;;1.30;99.90;;;;;;5081325;28;20272;-52
2024/01/19 02:00:43;;;;;;;5.88;2.70;;;1.30;99.90;;;;;;5080872;28;20190;-53
2024/01/19 02:03:10;;;;;;;5.97;2.53;;;1.20;99.90;;;;;;5080107;28;20662;-54
2024/01/19 02:05:36;;;;;;;8.85;2.28;;;1.20;99.90;;;;;;5081088;28;20182;-47
2024/01/19 02:08:02;;;;;;;8.48;2.10;;;1.20;99.90;;;;;;5079632;28;20186;-47
2024/01/19 02:10:28;;;;;;;4.63;1.65;;;1.30;99.90;;;;;;5081038;28;20217;-52
2024/01/19 02:12:55;;;;;;;7.82;1.70;;;1.30;99.90;;;;;;5080939;28;20226;-46
2024/01/19 02:15:22;;;;;;;5.03;1.58;;;1.40;99.90;;;;;;5079419;28;20186;-46
2024/01/19 02:17:50;;;;;;;5.03;1.50;;;1.50;99.90;;;;;;5080782;28;20197;-45
2024/01/19 02:20:16;;;;;;;8.18;1.98;;;1.50;99.90;;;;;;5080585;28;20243;-45
2024/01/19 02:22:46;;;;;;;4.47;1.58;;;1.60;99.90;;;;;;5080570;28;20226;-46
2024/01/19 02:25:13;;;;;;;9.63;2.10;;;1.60;99.90;;;;;;5080533;28;20220;-47
2024/01/19 02:27:39;;;;;;;6.10;1.63;;;1.70;99.90;;;;;;5079325;28;20707;-55
2024/01/19 02:30:10;;;;;;;8.25;1.42;;;1.70;99.90;;;;;;5080687;28;20265;-48
2024/01/19 02:32:36;;;;;;;7.50;2.15;;;1.80;99.90;;;;;;5079627;28;20201;-49
2024/01/19 02:35:03;;;;;;;11.95;3.30;;;1.80;99.90;;;;;;5081474;28;20359;-48
2024/01/19 02:37:29;;;;;;;12.77;4.03;;;1.80;99.90;;;;;;5083502;28;20189;-49
2024/01/19 02:39:55;;;;;;;11.80;3.88;;;1.80;99.90;;;;;;5084523;28;20198;-47
2024/01/19 02:42:21;;;;;;;10.15;3.10;;;1.80;99.90;;;;;;5084351;28;20206;-48
2024/01/19 02:44:47;;;;;;;8.95;2.65;;;1.70;99.90;;;;;;5084316;28;20178;-51
2024/01/19 02:47:13;;;;;;;7.95;2.45;;;1.60;99.90;;;;;;5083935;28;21102;-51
2024/01/19 02:49:39;;;;;;;7.95;2.50;;;1.60;99.90;;;;;;5083723;28;20190;-46
2024/01/19 02:52:05;;;;;;;6.75;2.55;;;1.60;99.90;;;;;;5083080;28;20192;-53
2024/01/19 02:54:31;;;;;;;11.32;3.40;;;1.50;99.90;;;;;;5084001;28;21316;-49
2024/01/19 02:56:57;;;;;;;13.40;3.35;;;1.50;99.90;;;;;;5082598;28;20194;-50
2024/01/19 02:59:23;;;;;;;12.10;3.30;;;1.40;99.90;;;;;;5081714;28;20595;-46
2024/01/19 03:01:49;;;;;;;9.73;2.75;;;1.40;99.90;;;;;;5083730;28;20210;-48
2024/01/19 03:04:14;;;;;;;10.35;2.00;;;1.30;99.90;;;;;;5084105;28;20243;-47
2024/01/19 03:06:43;;;;;;;7.07;1.90;;;1.30;99.90;;;;;;5081600;28;20192;-51
2024/01/19 03:09:09;;;;;;;7.90;2.40;;;1.20;99.90;;;;;;5083485;28;20803;-50
2024/01/19 03:11:35;;;;;;;6.38;2.25;;;1.20;99.90;;;;;;5083731;28;20201;-44
2024/01/19 03:14:01;;;;;;;8.65;2.53;;;1.10;99.90;;;;;;5082229;28;20190;-53
2024/01/19 03:16:26;;;;;;;10.55;2.53;;;1.10;99.90;;;;;;5082667;28;20467;-51
2024/01/19 03:19:00;;;;;;;8.10;2.45;;;1.00;99.90;;;;;;5082865;28;20190;-47
2024/01/19 03:21:27;;;;;;;7.57;2.05;;;1.00;99.90;;;;;;5083087;28;20213;-49
2024/01/19 03:23:53;;;;;;;9.63;2.53;;;1.00;99.90;;;;;;5083175;28;20222;-46
2024/01/19 03:26:19;;;;;;;7.30;2.40;;;0.90;99.90;;;;;;5082308;28;20211;-45
2024/01/19 03:28:45;;;;;;;6.47;2.03;;;0.90;99.90;;;;;;5082786;28;20281;-52
2024/01/19 03:31:10;;;;;;;10.57;1.92;;;0.90;99.90;;;;;;5083168;28;20342;-48
2024/01/19 03:33:36;;;;;;;6.70;1.80;;;0.90;99.90;;;;;;5083444;28;20280;-50
2024/01/19 03:36:02;;;;;;;5.30;1.80;;;1.00;99.90;;;;;;5081791;28;20580;-49
2024/01/19 03:38:29;;;;;;;10.35;2.60;;;1.00;99.90;;;;;;5082709;28;20330;-43
2024/01/19 03:40:55;;;;;;;8.98;2.30;;;1.00;99.90;;;;;;5082829;28;20193;-51
2024/01/19 03:43:21;;;;;;;7.15;1.73;;;1.00;99.90;;;;;;5082151;28;20572;-51
2024/01/19 03:45:47;;;;;;;6.18;1.63;;;1.10;99.90;;;;;;5083382;28;20213;-49
2024/01/19 03:48:12;;;;;;;7.40;2.28;;;1.20;99.90;;;;;;5082103;28;20193;-48
2024/01/19 03:50:38;;;;;;;8.18;2.50;;;1.20;99.90;;;;;;5081789;28;20182;-49
2024/01/19 03:53:04;;;;;;;6.65;2.22;;;1.20;99.90;;;;;;5082830;28;20186;-47
2024/01/19 03:55:30;;;;;;;9.32;2.10;;;1.20;99.90;;;;;;5081642;28;20189;-51
2024/01/19 03:57:56;;;;;;;9.02;2.10;;;1.20;99.90;;;;;;5082535;28;20566;-45
2024/01/19 04:00:22;;;;;;;6.80;2.25;;;1.20;99.90;;;;;;5082224;28;20186;-48
2024/01/19 04:02:48;;;;;;;10.55;2.78;;;1.10;99.90;;;;;;5082608;28;20696;-46
2024/01/19 04:05:13;;;;;;;7.25;2.13;;;1.10;99.90;;;;;;5081307;28;20223;-48
2024/01/19 04:07:39;;;;;;;10.05;2.45;;;1.00;99.90;;;;;;5082499;28;20185;-46
2024/01/19 04:10:06;;;;;;;10.50;2.10;;;1.10;99.90;;;;;;5082858;28;20285;-49
2024/01/19 04:12:31;;;;;;;5.25;1.98;;;1.10;99.90;;;;;;5064151;28;20190;-50
2024/01/19 04:14:57;;;;;;;8.82;1.98;;;1.10;99.90;;;;;;5081249;28;20181;-51
2024/01/19 04:17:23;;;;;;;9.55;2.08;;;1.10;99.90;;;;;;5081107;28;21840;-43
2024/01/19 04:19:49;;;;;;;8.98;2.20;;;1.10;99.90;;;;;;5080799;28;20619;-43
2024/01/19 04:22:15;;;;;;;9.52;2.15;;;1.10;99.90;;;;;;5080928;28;20210;-47
2024/01/19 04:24:41;;;;;;;6.72;2.22;;;1.10;99.90;;;;;;5082097;28;20258;-49
2024/01/19 04:27:07;;;;;;;11.38;2.20;;;1.20;99.90;;;;;;5080732;28;20277;-48
2024/01/19 04:29:32;;;;;;;6.43;2.08;;;1.20;99.90;;;;;;5080668;28;20194;-48
2024/01/19 04:31:58;;;;;;;9.48;1.83;;;1.10;99.90;;;;;;5082332;28;20197;-48
2024/01/19 04:34:24;;;;;;;6.50;1.90;;;1.10;99.90;;;;;;5082149;28;20190;-50
2024/01/19 04:36:50;;;;;;;9.82;2.20;;;1.10;99.90;;;;;;5081370;28;21201;-53
2024/01/19 04:39:16;;;;;;;10.43;1.83;;;1.10;99.90;;;;;;5081184;28;20642;-50
2024/01/19 04:41:42;;;;;;;12.70;2.40;;;1.10;99.90;;;;;;5081855;28;20263;-52
2024/01/19 04:44:08;;;;;;;14.05;1.92;;;1.10;99.90;;;;;;5081766;28;20178;-51
2024/01/19 04:46:34;;;;;;;6.30;1.88;;;1.10;99.90;;;;;;5082296;28;20182;-49
2024/01/19 04:49:00;;;;;;;16.00;2.20;;;1.10;99.90;;;;;;5081900;28;20251;-48
2024/01/19 04:51:26;;;;;;;8.07;1.65;;;1.10;99.90;;;;;;5082253;28;20190;-49
2024/01/19 04:53:52;;;;;;;10.18;2.22;;;1.10;99.90;;;;;;5082151;28;20218;-48
2024/01/19 04:56:17;;;;;;;12.68;2.20;;;1.00;99.90;;;;;;5080525;28;20608;-49
2024/01/19 04:58:43;;;;;;;20.60;2.45;;;1.00;99.90;;;;;;5080962;28;20193;-51
2024/01/19 05:01:09;;;;;;;15.63;2.10;;;1.00;99.90;;;;;;5063155;28;20536;-45
2024/01/19 05:03:35;;;;;;;14.63;2.28;;;1.00;99.90;;;;;;5082005;28;20193;-50
2024/01/19 05:06:01;;;;;;;17.35;2.10;;;1.00;99.90;;;;;;5081656;28;20181;-49
2024/01/19 05:08:27;;;;;;;11.65;2.03;;;1.00;99.90;;;;;;5081518;28;20794;-44
2024/01/19 05:10:52;;;;;;;7.78;2.00;;;0.90;99.90;;;;;;5080726;28;20514;-47
2024/01/19 05:13:18;;;;;;;8.85;2.08;;;0.90;99.90;;;;;;5081344;28;20185;-50
2024/01/19 05:15:44;;;;;;;14.05;2.63;;;1.00;99.90;;;;;;5080103;28;20190;-50
2024/01/19 05:18:10;;;;;;;7.00;1.90;;;1.00;99.90;;;;;;5081842;28;20650;-48
2024/01/19 05:20:38;;;;;;;9.52;2.35;;;1.10;99.90;;;;;;5080923;28;20193;-49
2024/01/19 05:23:04;;;;;;;9.48;1.90;;;1.10;99.90;;;;;;5079989;28;20229;-51
2024/01/19 05:25:30;;;;;;;14.02;2.75;;;1.20;99.90;;;;;;5081210;28;20551;-50
2024/01/19 05:27:56;;;;;;;11.32;2.20;;;1.30;99.90;;;;;;5080483;28;20178;-48
2024/01/19 05:30:25;;;;;;;6.90;1.80;;;1.30;99.90;;;;;;5080661;28;20186;-42
2024/01/19 05:32:51;;;;;;;13.20;2.35;;;1.40;99.90;;;;;;5081235;28;20190;-45
2024/01/19 05:35:17;;;;;;;9.85;1.85;;;1.50;99.90;;;;;;5080656;28;20713;-43
2024/01/19 05:37:42;;;;;;;17.48;2.08;;;1.50;99.90;;;;;;5079909;28;20224;-47
2024/01/19 05:40:09;;;;;;;8.70;2.03;;;1.40;99.90;;;;;;5081004;28;20646;-49
2024/01/19 05:42:35;;;;;;;10.27;1.88;;;1.40;99.90;;;;;;5079632;28;20216;-48
2024/01/19 05:45:01;;;;;;;12.20;1.85;;;1.30;99.90;;;;;;5080957;28;20185;-48
2024/01/19 05:47:27;;;;;;;7.28;1.60;;;1.20;99.90;;;;;;5081282;28;20190;-48
2024/01/19 05:49:53;;;;;;;7.90;1.80;;;1.20;99.90;;;;;;5081050;28;20194;-51
2024/01/19 05:52:19;;;;;;;11.63;1.67;;;1.10;99.90;;;;;;5080216;28;20182;-45
2024/01/19 05:54:45;;;;;;;14.57;2.03;;;1.10;99.90;;;;;;5081134;28;20185;-46
2024/01/19 05:57:11;;;;;;;14.43;2.15;;;1.00;99.90;;;;;;5081161;28;20312;-51
2024/01/19 05:59:40;;;;;;;9.63;2.08;;;1.00;99.90;;;;;;5079744;28;20190;-50
2024/01/19 06:02:07;;;;;;;10.10;1.90;;;1.00;99.90;;;;;;5079871;28;20320;-47
2024/01/19 06:04:33;;;;;;;8.02;2.17;;;0.90;99.90;;;;;;5080221;28;20182;-47
2024/01/19 06:07:00;;;;;;;12.07;2.30;;;1.00;99.90;;;;;;5080260;28;20478;-48
2024/01/19 06:09:26;;;;;;;10.70;2.20;;;1.00;99.90;;;;;;5081219;28;21340;-50
2024/01/19 06:11:52;;;;;;;13.07;2.75;;;1.10;99.90;;;;;;5082853;28;20250;-45
2024/01/19 06:14:17;;;;;;;11.98;2.90;;;1.10;99.90;;;;;;5084117;28;21181;-44
2024/01/19 06:16:43;;;;;;;12.82;2.53;;;1.10;99.90;;;;;;5084262;28;20190;-50
2024/01/19 06:19:09;;;;;;;8.65;2.00;;;1.10;99.90;;;;;;5085080;28;20217;-46
2024/01/19 06:21:35;;;;;;;10.25;1.90;;;1.10;99.90;;;;;;5084961;28;20299;-52
2024/01/19 06:24:01;;;;;;;15.20;2.78;;;1.10;99.90;;;;;;5084225;28;20230;-48
2024/01/19 06:26:32;;;;;;;11.00;2.10;;;1.00;99.90;;;;;;5084766;28;20193;-45
2024/01/19 06:29:01;;;;;;;12.52;2.83;;;1.00;99.90;;;;;;5084610;28;20182;-50
2024/01/19 06:31:26;;;;;;;9.68;2.20;;;0.90;99.90;;;;;;5083571;28;20304;-47
2024/01/19 06:33:52;;;;;;;8.55;2.08;;;0.90;99.90;;;;;;5084128;28;20292;-47
2024/01/19 06:36:18;;;;;;;12.48;2.10;;;0.80;99.90;;;;;;5082858;28;20278;-49
2024/01/19 06:38:44;;;;;;;11.43;2.38;;;0.80;99.90;;;;;;5084562;28;20190;-47
2024/01/19 06:41:11;;;;;;;7.13;1.85;;;0.80;99.90;;;;;;5083629;28;20193;-48
2024/01/19 06:43:38;;;;;;;9.43;2.20;;;0.70;99.90;;;;;;5084409;28;20184;-49
2024/01/19 06:46:05;;;;;;;8.77;2.42;;;0.70;99.90;;;;;;5082332;28;20661;-44
2024/01/19 06:48:31;;;;;;;8.88;2.50;;;0.70;99.90;;;;;;5082449;28;20205;-45
2024/01/19 06:50:57;;;;;;;8.70;2.47;;;0.70;99.90;;;;;;5081912;28;20234;-51
2024/01/19 06:53:23;;;;;;;9.25;2.25;;;0.70;99.90;;;;;;5065018;28;20696;-45
2024/01/19 06:55:49;;;;;;;4.70;1.88;;;0.70;99.90;;;;;;5083701;28;20194;-48
2024/01/19 06:58:15;;;;;;;7.53;2.40;;;0.70;99.90;;;;;;5084117;28;20182;-50
2024/01/19 07:00:41;;;;;;;9.43;2.45;;;0.70;99.90;;;;;;5083939;28;20200;-50
2024/01/19 07:03:07;;;;;;;7.78;2.30;;;0.70;99.90;;;;;;5083623;28;20214;-55
2024/01/19 07:05:32;;;;;;;9.07;1.75;;;0.80;99.90;;;;;;5082430;28;20186;-50
2024/01/19 07:07:59;;;;;;;9.43;2.47;;;0.80;99.90;;;;;;5083826;28;20234;-48
2024/01/19 07:10:25;;;;;;;12.57;2.60;;;0.80;99.90;;;;;;5065162;28;20194;-49
2024/01/19 07:12:51;;;;;;;9.02;2.00;;;0.80;99.90;;;;;;5083291;28;20194;-47
2024/01/19 07:15:17;;;;;;;7.32;1.77;;;0.80;99.90;;;;;;5083818;28;20201;-48
2024/01/19 07:17:43;;;;;;;10.57;2.80;;;0.80;99.90;;;;;;5082782;28;20276;-43
2024/01/19 07:20:09;;;;;;;11.85;3.33;;;0.80;99.90;;;;;;5083391;28;20217;-46
2024/01/19 07:22:35;;;;;;;13.27;2.50;;;0.80;99.90;;;;;;5080539;28;20748;-48
2024/01/19 07:25:01;;;;;;;14.30;2.70;;;0.90;99.90;;;;;;5082804;28;20185;-49
2024/01/19 07:27:27;;;;;;;10.75;2.47;;;0.90;99.90;;;;;;5083094;28;20255;-46
2024/01/19 07:29:53;;;;;;;11.02;2.50;;;0.90;99.90;;;;;;5083296;28;20243;-52
2024/01/19 07:32:21;;;;;;;15.05;2.50;;;1.00;99.90;;;;;;5083642;28;20193;-52
2024/01/19 07:34:47;;;;;;;11.95;2.70;;;1.10;99.90;;;;;;5081382;28;20220;-48
2024/01/19 07:37:13;;;;;;;15.82;2.17;;;1.10;99.90;;;;;;5082877;28;20637;-49
2024/01/19 07:39:39;;;;;;;12.90;2.63;;;1.10;99.90;;;;;;5082826;28;20247;-48
2024/01/19 07:42:05;;;;;;;15.50;2.70;;;1.20;99.90;;;;;;5081684;28;20244;-47
2024/01/19 07:44:31;;;;;;;8.65;2.05;;;1.30;99.90;;;;;;5083080;28;20503;-44
2024/01/19 07:46:57;;;;;;;16.65;2.35;;;1.30;99.90;;;;;;5081276;28;20759;-53
2024/01/19 07:49:23;;;;;;;15.57;2.58;;;1.30;99.90;;;;;;5082439;28;20213;-50
2024/01/19 07:51:49;;;;;;;14.60;2.70;;;1.30;99.90;;;;;;5082943;28;21028;-45
2024/01/19 07:54:16;;;;;;;18.73;3.08;;;1.40;99.90;;;;;;5082205;28;20178;-50
2024/01/19 07:56:42;;;;;;;12.73;2.58;;;1.40;99.90;;;;;;5082456;28;20612;-48
2024/01/19 07:59:08;;;;;;;9.93;2.55;;;1.40;99.90;;;;;;5081276;28;20185;-48
2024/01/19 08:01:34;;;;;;;16.83;2.67;;;1.50;99.90;;;;;;5064093;28;20312;-50
2024/01/19 08:04:00;;;;;;;11.13;2.38;;;1.50;99.90;;;;;;5051299;28;20269;-49
2024/01/19 08:06:26;;;;;;;13.88;2.70;;;1.60;99.90;;;;;;5064487;28;20630;-52
2024/01/19 08:08:52;;;;;;;12.57;2.65;;;1.60;99.90;;;;;;5081449;28;20259;-49
2024/01/19 08:11:18;;;;;;;13.15;2.92;;;1.70;99.90;;;;;;5082066;28;20190;-49
2024/01/19 08:13:43;;;;;;;13.82;2.50;;;1.70;99.90;;;;;;5082517;28;20186;-51
2024/01/19 08:16:09;;;;;;;20.90;2.95;;;1.70;99.90;;;;;;5082198;28;20194;-49
2024/01/19 08:18:35;;;;;;;10.23;2.10;;;1.60;99.90;;;;;;5082249;28;20650;-52
2024/01/19 08:21:04;;;;;;;11.93;2.83;;;1.60;99.90;;;;;;5082486;28;20656;-49
2024/01/19 08:23:30;;;;;;;11.95;2.75;;;1.60;99.90;;;;;;5080875;28;20272;-51
2024/01/19 08:25:56;;;;;;;25.67;8.38;;;1.60;99.90;;;;;;5063831;28;20582;-48
2024/01/19 08:28:22;;;;;;;16.92;2.80;;;1.60;99.90;;;;;;5062911;28;20200;-49
2024/01/19 08:30:51;;;;;;;12.30;2.58;;;1.60;99.90;;;;;;5081118;28;20586;-47
2024/01/19 08:33:17;;;;;;;11.65;2.38;;;1.60;99.90;;;;;;5081753;28;20239;-51
2024/01/19 08:35:43;;;;;;;11.43;2.58;;;1.60;99.90;;;;;;5081113;28;21067;-47
2024/01/19 08:38:09;;;;;;;12.73;2.55;;;1.60;99.90;;;;;;5080890;28;20606;-53
2024/01/19 08:40:35;;;;;;;8.55;2.00;;;1.60;99.90;;;;;;5080025;28;20189;-49
2024/01/19 08:43:00;;;;;;;9.73;2.30;;;1.60;99.90;;;;;;5082332;28;20584;-50
2024/01/19 08:45:29;;;;;;;15.18;2.72;;;1.60;99.90;;;;;;5081909;28;20515;-46
2024/01/19 08:47:58;;;;;;;9.85;2.28;;;1.70;99.90;;;;;;5081696;28;20186;-49
2024/01/19 08:50:24;;;;;;;14.82;3.13;;;1.70;99.90;;;;;;5081450;28;20291;-46
2024/01/19 08:52:50;;;;;;;13.85;2.60;;;1.70;99.90;;;;;;5081402;28;20204;-52
2024/01/19 08:55:16;;;;;;;13.43;2.80;;;1.80;99.90;;;;;;5081443;28;20641;-50
2024/01/19 08:57:42;;;;;;;15.32;2.90;;;1.80;99.90;;;;;;5081225;28;20216;-49
2024/01/19 09:00:09;;;;;;;18.42;2.88;;;1.80;99.90;;;;;;5080983;28;20283;-52
2024/01/19 09:02:35;;;;;;;9.57;2.30;;;1.90;99.90;;;;;;5062650;28;20301;-51
2024/01/19 09:05:00;;;;;;;7.65;2.63;;;1.90;99.90;;;;;;5081129;28;20208;-47
2024/01/19 09:07:26;;;;;;;13.95;3.00;;;1.90;99.90;;;;;;5081168;28;20182;-49
2024/01/19 09:09:52;;;;;;;12.63;2.78;;;1.90;99.90;;;;;;5080912;28;20221;-48
2024/01/19 09:12:18;;;;;;;13.88;2.95;;;1.90;99.90;;;;;;5079955;28;20197;-50
2024/01/19 09:14:44;;;;;;;11.65;2.40;;;2.00;99.90;;;;;;5081401;28;20194;-46
2024/01/19 09:17:10;;;;;;;11.10;2.50;;;2.00;99.90;;;;;;5080895;28;20200;-48
2024/01/19 09:19:36;;;;;;;13.43;2.45;;;2.10;99.90;;;;;;5080824;28;20221;-50
2024/01/19 09:22:02;;;;;;;13.93;2.85;;;2.10;99.90;;;;;;5080312;28;20717;-47
2024/01/19 09:24:28;;;;;;;13.80;2.78;;;2.10;99.90;;;;;;5081446;28;20647;-45
2024/01/19 09:26:54;;;;;;;14.65;3.20;;;2.20;99.90;;;;;;5081311;28;20188;-45
2024/01/19 09:29:20;;;;;;;12.13;2.47;;;2.20;99.90;;;;;;5081284;28;20181;-52
2024/01/19 09:31:47;;;;;;;12.43;2.50;;;2.20;99.90;;;;;;5080444;28;20190;-52
2024/01/19 09:34:14;;;;;;;9.50;2.15;;;2.30;99.90;;;;;;5078852;28;20553;-47
2024/01/19 09:36:40;;;;;;;13.88;2.80;;;2.30;99.90;;;;;;5079980;28;20304;-54
2024/01/19 09:39:07;;;;;;;10.02;2.63;;;2.30;99.90;;;;;;5080337;28;20558;-44
2024/01/19 09:41:43;;;;;;;13.82;2.72;;;2.40;99.90;;;;;;5080590;28;20214;-51
2024/01/19 09:44:11;;;;;;;14.27;2.60;;;2.40;99.90;;;;;;5080272;28;20246;-47
2024/01/19 09:47:03;;;;;;;24.45;2.78;;;2.40;99.90;;;;;;5080764;28;20178;-50
2024/01/19 09:50:02;;;;;;;12.18;2.55;;;2.50;99.90;;;;;;5080307;28;20231;-47
2024/01/19 09:52:53;;;;;;;6.22;2.17;;;2.60;99.90;;;;;;5080033;28;20190;-50
2024/01/19 09:55:20;;;;;;;13.88;2.75;;;2.70;99.90;;;;;;5080248;28;20235;-49
2024/01/19 09:57:48;;;;;;;13.00;2.53;;;2.70;99.90;;;;;;5062627;28;20178;-47
2024/01/19 10:00:19;;;;;;;12.07;2.63;;;2.80;99.90;;;;;;5079908;28;20197;-47
2024/01/19 10:02:47;;;;;;;14.60;2.55;;;2.80;99.90;;;;;;5080340;28;20217;-49
2024/01/19 10:05:16;;;;;;;18.10;3.22;;;2.90;99.90;;;;;;5079819;28;20186;-47
2024/01/19 10:07:47;;;;;;;13.25;3.10;;;3.00;99.90;;;;;;5079963;28;20186;-50
2024/01/19 10:10:13;;;;;;;13.63;3.03;;;3.10;99.90;;;;;;5080296;28;20182;-52
2024/01/19 10:12:39;;;;;;;14.65;2.95;;;3.20;99.90;;;;;;5080124;28;20190;-47
2024/01/19 10:15:10;;;;;;;8.18;2.50;;;3.20;99.90;;;;;;5077814;28;20231;-52
2024/01/19 10:17:36;;;;;;;15.05;2.78;;;3.30;99.90;;;;;;5078225;28;20201;-49
2024/01/19 10:20:03;;;;;;;17.38;2.90;;;3.40;99.90;;;;;;5079609;28;20716;-52
2024/01/19 10:22:30;;;;;;;10.98;2.50;;;3.40;99.90;;;;;;5080312;28;20673;-51
2024/01/19 10:25:08;;;;;;;17.55;2.78;;;3.50;99.90;;;;;;5080541;28;20547;-48
2024/01/19 10:27:48;;;;;;;11.48;2.45;;;3.60;99.90;;;;;;5080331;28;20528;-48
2024/01/19 10:30:25;;;;;;;12.27;2.60;;;3.60;99.90;;;;;;5078776;28;20196;-47
2024/01/19 10:32:53;;;;;;;15.55;2.40;;;3.60;99.90;;;;;;5080554;28;20300;-48
2024/01/19 10:35:21;;;;;;;13.48;3.22;;;3.70;99.90;;;;;;5062258;28;20232;-46
2024/01/19 10:37:48;;;;;;;12.48;2.67;;;3.70;99.90;;;;;;5080558;28;20268;-47
2024/01/19 10:40:17;;;;;;;13.70;2.92;;;3.70;99.90;;;;;;5080332;28;20553;-48
2024/01/19 10:42:45;;;;;;;13.07;2.72;;;3.70;99.90;;;;;;5078752;28;20214;-48
2024/01/19 10:45:21;;;;;;;12.63;3.42;;;3.80;99.90;;;;;;5080739;28;20206;-48
2024/01/19 10:47:52;;;;;;;14.50;2.92;;;3.80;99.90;;;;;;5080223;28;20308;-48
2024/01/19 10:50:19;;;;;;;13.75;3.17;;;3.80;99.90;;;;;;5080044;28;20193;-49
2024/01/19 10:52:48;;;;;;;13.43;2.92;;;3.80;99.90;;;;;;5079757;28;21205;-49
2024/01/19 10:55:23;;;;;;;10.23;2.45;;;3.90;99.90;;;;;;5080373;28;20194;-49
2024/01/19 10:57:53;;;;;;;12.75;2.75;;;3.90;99.90;;;;;;5080810;28;20197;-47
2024/01/19 11:00:22;;;;;;;10.15;2.90;;;3.90;99.90;;;;;;5083551;28;20178;-48
2024/01/19 11:02:54;;;;;;;15.35;2.63;;;3.90;99.90;;;;;;5082037;28;20229;-50
2024/01/19 11:05:20;;;;;;;14.68;3.28;;;4.00;99.90;;;;;;5081777;28;20216;-47
2024/01/19 11:07:52;;;;;;;16.00;3.20;;;4.00;99.90;;;;;;5082257;28;20649;-46
2024/01/19 11:10:19;;;;;;;15.27;3.17;;;4.00;99.90;;;;;;5082772;28;20661;-49
2024/01/19 11:12:49;;;;;;;11.98;2.63;;;4.10;99.90;;;;;;5082701;28;20192;-48
2024/01/19 11:15:27;;;;;;;12.27;2.95;;;4.10;99.90;;;;;;5081997;28;20186;-50
2024/01/19 11:17:56;;;;;;;13.35;3.35;;;4.10;99.90;;;;;;5083232;28;20300;-49
2024/01/19 11:20:23;;;;;;;10.82;2.65;;;4.10;99.90;;;;;;5083356;28;20718;-46
2024/01/19 11:22:51;;;;;;;11.50;2.50;;;4.20;99.90;;;;;;5081350;28;20271;-50
2024/01/19 11:25:22;;;;;;;14.40;3.10;;;4.20;99.90;;;;;;5083008;28;20177;-46
2024/01/19 11:27:56;;;;;;;24.65;2.72;;;4.30;99.90;;;;;;5083150;28;20180;-47
2024/01/19 11:30:50;;;;;;;13.27;2.58;;;4.40;99.90;;;;;;5082599;28;20211;-53
2024/01/19 11:33:19;;;;;;;15.48;2.50;;;4.40;99.90;;;;;;5083105;28;20658;-46
2024/01/19 11:35:49;;;;;;;9.60;2.55;;;4.50;99.90;;;;;;5082711;28;20197;-51
2024/01/19 11:38:36;;;;;;;9.50;1.88;;;4.50;99.90;;;;;;5082642;28;20204;-44
2024/01/19 11:41:03;;;;;;;6.63;1.83;;;4.60;99.90;;;;;;5081102;28;20193;-53
2024/01/19 11:43:42;;;;;;;10.73;2.53;;;4.70;99.90;;;;;;5081625;28;20217;-46
2024/01/19 11:46:10;;;;;;;11.07;2.15;;;4.70;99.90;;;;;;5082122;28;20173;-49
2024/01/19 11:48:46;;;;;;;9.88;2.50;;;4.70;99.90;;;;;;5082062;28;20182;-49
2024/01/19 11:51:33;;;;;;;12.63;2.38;;;4.80;99.90;;;;;;5081311;28;20219;-47
2024/01/19 11:54:04;;;;;;;9.13;2.33;;;4.80;99.90;;;;;;5082630;28;20182;-52
2024/01/19 11:56:31;;;;;;;13.75;2.30;;;4.90;99.90;;;;;;5082642;28;20314;-53
2024/01/19 11:58:58;;;;;;;13.13;2.53;;;4.90;99.90;;;;;;5081856;28;20640;-50
2024/01/19 12:01:24;;;;;;;15.60;2.65;;;4.90;99.90;;;;;;5082056;28;20660;-52
2024/01/19 12:03:55;;;;;;;13.35;2.67;;;5.00;99.90;;;;;;5081172;28;20186;-50
2024/01/19 12:06:23;;;;;;;9.23;2.20;;;5.00;99.90;;;;;;5082155;28;20277;-53
2024/01/19 12:09:00;;;;;;;8.68;2.00;;;5.00;99.90;;;;;;5081567;28;20185;-51
2024/01/19 12:11:26;;;;;;;8.95;2.10;;;5.10;99.90;;;;;;5081313;28;20224;-51
2024/01/19 12:13:52;;;;;;;13.80;2.05;;;5.10;99.90;;;;;;5081562;28;20275;-50
2024/01/19 12:16:22;;;;;;;11.15;2.30;;;5.10;99.90;;;;;;5081282;28;20190;-49
2024/01/19 12:18:54;;;;;;;8.68;2.40;;;5.10;99.90;;;;;;5081817;28;20186;-49
2024/01/19 12:21:20;;;;;;;12.77;2.30;;;5.10;99.90;;;;;;5081324;28;20238;-52
2024/01/19 12:23:46;;;;;;;17.13;2.30;;;5.20;99.90;;;;;;5081522;28;20705;-52
2024/01/19 12:26:12;;;;;;;12.18;2.20;;;5.10;99.90;;;;;;5081882;28;20201;-47
2024/01/19 12:28:37;;;;;;;9.55;2.38;;;5.20;99.90;;;;;;5080198;28;20182;-49
2024/01/19 12:31:04;;;;;;;15.30;2.63;;;5.20;99.90;;;;;;5081998;28;20194;-51
2024/01/19 12:33:30;;;;;;;11.25;2.00;;;5.20;99.90;;;;;;5080438;28;20193;-44
2024/01/19 12:36:03;;;;;;;11.77;2.47;;;5.20;99.90;;;;;;5081797;28;20565;-49
2024/01/19 12:38:28;;;;;;;10.75;2.03;;;5.20;99.90;;;;;;5081247;28;20241;-52
2024/01/19 12:40:56;;;;;;;12.65;2.33;;;5.20;99.90;;;;;;5081446;28;20213;-43
2024/01/19 12:43:22;;;;;;;10.57;2.10;;;5.20;99.90;;;;;;5079754;28;20217;-48
2024/01/19 12:45:48;;;;;;;16.65;2.60;;;5.30;99.90;;;;;;5080230;28;21234;-50
2024/01/19 12:48:15;;;;;;;12.75;2.30;;;5.30;99.90;;;;;;5081067;28;20270;-54
2024/01/19 12:50:41;;;;;;;15.07;2.40;;;5.30;99.90;;;;;;5080156;28;20227;-49
2024/01/19 12:53:07;;;;;;;9.40;2.03;;;5.30;99.90;;;;;;5081133;28;20189;-50